sensor_id;sensor_type;location;lat;lon;timestamp;P1;durP1;ratioP1;P2;durP2;ratioP2
5125;SDS011;63008;53.112;8.896;2023-12-04T00:01:12;31.47;;;18.03;;
5125;SDS011;63008;53.112;8.896;2023-12-04T00:03:14;32.07;;;18.63;;
5125;SDS011;63008;53.112;8.896;2023-12-04T00:05:15;35.33;;;20.30;;
5125;SDS011;63008;53.112;8.896;2023-12-04T00:07:16;30.03;;;19.70;;
5125;SDS011;63008;53.112;8.896;2023-12-04T00:09:17;31.13;;;19.70;;
5125;SDS011;63008;53.112;8.896;2023-12-04T00:11:18;33.37;;;20.07;;
5125;SDS011;63008;53.112;8.896;2023-12-04T00:13:19;31.43;;;20.00;;
5125;SDS011;63008;53.112;8.896;2023-12-04T00:15:20;33.90;;;20.83;;
5125;SDS011;63008;53.112;8.896;2023-12-04T00:17:22;31.33;;;19.70;;
5125;SDS011;63008;53.112;8.896;2023-12-04T00:19:23;27.23;;;18.47;;
5125;SDS011;63008;53.112;8.896;2023-12-04T00:21:24;31.53;;;19.13;;
5125;SDS011;63008;53.112;8.896;2023-12-04T00:23:25;29.63;;;17.53;;
5125;SDS011;63008;53.112;8.896;2023-12-04T00:25:26;29.67;;;17.90;;
5125;SDS011;63008;53.112;8.896;2023-12-04T00:27:27;28.57;;;18.63;;
5125;SDS011;63008;53.112;8.896;2023-12-04T00:29:28;30.67;;;16.47;;
5125;SDS011;63008;53.112;8.896;2023-12-04T00:31:29;28.97;;;19.00;;
5125;SDS011;63008;53.112;8.896;2023-12-04T00:33:31;34.03;;;19.07;;
5125;SDS011;63008;53.112;8.896;2023-12-04T00:35:32;32.83;;;17.07;;
5125;SDS011;63008;53.112;8.896;2023-12-04T00:37:33;31.50;;;18.50;;
5125;SDS011;63008;53.112;8.896;2023-12-04T00:39:38;28.90;;;18.30;;
5125;SDS011;63008;53.112;8.896;2023-12-04T00:41:40;34.20;;;17.40;;
5125;SDS011;63008;53.112;8.896;2023-12-04T00:43:40;32.40;;;19.73;;
5125;SDS011;63008;53.112;8.896;2023-12-04T00:45:41;30.83;;;18.17;;
5125;SDS011;63008;53.112;8.896;2023-12-04T00:47:42;29.07;;;18.10;;
5125;SDS011;63008;53.112;8.896;2023-12-04T00:49:43;28.57;;;18.03;;
5125;SDS011;63008;53.112;8.896;2023-12-04T00:51:44;29.80;;;18.50;;
5125;SDS011;63008;53.112;8.896;2023-12-04T00:53:45;29.70;;;18.63;;
5125;SDS011;63008;53.112;8.896;2023-12-04T00:55:46;29.73;;;19.33;;
5125;SDS011;63008;53.112;8.896;2023-12-04T00:57:47;32.03;;;19.47;;
5125;SDS011;63008;53.112;8.896;2023-12-04T00:59:48;28.23;;;17.93;;
5125;SDS011;63008;53.112;8.896;2023-12-04T01:01:49;30.00;;;18.03;;
5125;SDS011;63008;53.112;8.896;2023-12-04T01:03:51;30.70;;;19.00;;
5125;SDS011;63008;53.112;8.896;2023-12-04T01:05:52;31.57;;;19.27;;
5125;SDS011;63008;53.112;8.896;2023-12-04T01:07:53;33.00;;;17.80;;
5125;SDS011;63008;53.112;8.896;2023-12-04T01:09:54;24.73;;;17.23;;
5125;SDS011;63008;53.112;8.896;2023-12-04T01:11:55;32.20;;;19.90;;
5125;SDS011;63008;53.112;8.896;2023-12-04T01:13:56;27.13;;;16.90;;
5125;SDS011;63008;53.112;8.896;2023-12-04T01:15:57;25.03;;;16.17;;
5125;SDS011;63008;53.112;8.896;2023-12-04T01:17:57;27.53;;;17.90;;
5125;SDS011;63008;53.112;8.896;2023-12-04T01:20:01;29.67;;;17.57;;
5125;SDS011;63008;53.112;8.896;2023-12-04T01:22:02;29.10;;;17.40;;
5125;SDS011;63008;53.112;8.896;2023-12-04T01:24:03;27.27;;;17.47;;
5125;SDS011;63008;53.112;8.896;2023-12-04T01:26:04;26.27;;;15.13;;
5125;SDS011;63008;53.112;8.896;2023-12-04T01:28:05;33.33;;;18.60;;
5125;SDS011;63008;53.112;8.896;2023-12-04T01:30:06;28.40;;;18.30;;
5125;SDS011;63008;53.112;8.896;2023-12-04T01:32:11;26.90;;;18.13;;
5125;SDS011;63008;53.112;8.896;2023-12-04T01:34:11;28.07;;;17.23;;
5125;SDS011;63008;53.112;8.896;2023-12-04T01:36:12;29.17;;;17.30;;
5125;SDS011;63008;53.112;8.896;2023-12-04T01:38:14;27.90;;;16.97;;
5125;SDS011;63008;53.112;8.896;2023-12-04T01:40:15;28.47;;;17.10;;
5125;SDS011;63008;53.112;8.896;2023-12-04T01:42:16;27.40;;;17.03;;
5125;SDS011;63008;53.112;8.896;2023-12-04T01:44:17;26.30;;;14.70;;
5125;SDS011;63008;53.112;8.896;2023-12-04T01:46:18;27.60;;;16.63;;
5125;SDS011;63008;53.112;8.896;2023-12-04T01:48:19;25.23;;;16.13;;
5125;SDS011;63008;53.112;8.896;2023-12-04T01:50:21;27.40;;;16.77;;
5125;SDS011;63008;53.112;8.896;2023-12-04T01:52:22;27.33;;;17.07;;
5125;SDS011;63008;53.112;8.896;2023-12-04T01:54:23;28.53;;;18.13;;
5125;SDS011;63008;53.112;8.896;2023-12-04T01:56:24;28.67;;;18.00;;
5125;SDS011;63008;53.112;8.896;2023-12-04T01:58:25;26.50;;;16.90;;
5125;SDS011;63008;53.112;8.896;2023-12-04T02:00:27;28.63;;;18.03;;
5125;SDS011;63008;53.112;8.896;2023-12-04T02:02:28;29.10;;;17.00;;
5125;SDS011;63008;53.112;8.896;2023-12-04T02:04:29;27.13;;;17.13;;
5125;SDS011;63008;53.112;8.896;2023-12-04T02:06:32;26.83;;;15.33;;
5125;SDS011;63008;53.112;8.896;2023-12-04T02:08:33;27.67;;;15.77;;
5125;SDS011;63008;53.112;8.896;2023-12-04T02:10:34;28.63;;;17.10;;
5125;SDS011;63008;53.112;8.896;2023-12-04T02:12:35;29.47;;;17.50;;
5125;SDS011;63008;53.112;8.896;2023-12-04T02:14:36;28.33;;;17.83;;
5125;SDS011;63008;53.112;8.896;2023-12-04T02:16:38;27.80;;;16.37;;
5125;SDS011;63008;53.112;8.896;2023-12-04T02:18:42;27.97;;;17.63;;
5125;SDS011;63008;53.112;8.896;2023-12-04T02:20:44;28.60;;;17.27;;
5125;SDS011;63008;53.112;8.896;2023-12-04T02:22:45;30.47;;;17.67;;
5125;SDS011;63008;53.112;8.896;2023-12-04T02:24:46;26.10;;;17.27;;
5125;SDS011;63008;53.112;8.896;2023-12-04T02:26:49;26.50;;;16.73;;
5125;SDS011;63008;53.112;8.896;2023-12-04T02:28:55;29.50;;;16.57;;
5125;SDS011;63008;53.112;8.896;2023-12-04T02:31:03;26.20;;;16.40;;
5125;SDS011;63008;53.112;8.896;2023-12-04T02:33:06;27.33;;;16.47;;
5125;SDS011;63008;53.112;8.896;2023-12-04T02:35:08;25.77;;;16.50;;
5125;SDS011;63008;53.112;8.896;2023-12-04T02:37:11;28.47;;;16.83;;
5125;SDS011;63008;53.112;8.896;2023-12-04T02:39:12;26.60;;;16.17;;
5125;SDS011;63008;53.112;8.896;2023-12-04T02:41:13;30.23;;;16.90;;
5125;SDS011;63008;53.112;8.896;2023-12-04T02:43:14;26.43;;;16.80;;
5125;SDS011;63008;53.112;8.896;2023-12-04T02:45:15;27.47;;;16.17;;
5125;SDS011;63008;53.112;8.896;2023-12-04T02:47:17;24.80;;;16.03;;
5125;SDS011;63008;53.112;8.896;2023-12-04T02:49:18;25.03;;;15.97;;
5125;SDS011;63008;53.112;8.896;2023-12-04T02:51:19;27.53;;;15.00;;
5125;SDS011;63008;53.112;8.896;2023-12-04T02:53:20;23.17;;;15.13;;
5125;SDS011;63008;53.112;8.896;2023-12-04T02:55:21;24.17;;;15.37;;
5125;SDS011;63008;53.112;8.896;2023-12-04T02:57:22;26.40;;;16.20;;
5125;SDS011;63008;53.112;8.896;2023-12-04T02:59:23;26.80;;;15.50;;
5125;SDS011;63008;53.112;8.896;2023-12-04T03:01:24;25.30;;;16.03;;
5125;SDS011;63008;53.112;8.896;2023-12-04T03:03:25;27.03;;;16.07;;
5125;SDS011;63008;53.112;8.896;2023-12-04T03:05:26;27.80;;;17.43;;
5125;SDS011;63008;53.112;8.896;2023-12-04T03:07:27;24.07;;;13.17;;
5125;SDS011;63008;53.112;8.896;2023-12-04T03:09:28;23.70;;;14.37;;
5125;SDS011;63008;53.112;8.896;2023-12-04T03:11:29;23.27;;;13.40;;
5125;SDS011;63008;53.112;8.896;2023-12-04T03:13:30;27.77;;;16.83;;
5125;SDS011;63008;53.112;8.896;2023-12-04T03:15:31;25.10;;;16.00;;
5125;SDS011;63008;53.112;8.896;2023-12-04T03:17:32;28.47;;;16.57;;
5125;SDS011;63008;53.112;8.896;2023-12-04T03:19:33;27.50;;;15.50;;
5125;SDS011;63008;53.112;8.896;2023-12-04T03:21:34;28.93;;;13.83;;
5125;SDS011;63008;53.112;8.896;2023-12-04T03:23:35;27.53;;;16.53;;
5125;SDS011;63008;53.112;8.896;2023-12-04T03:25:36;28.70;;;16.37;;
5125;SDS011;63008;53.112;8.896;2023-12-04T03:27:37;26.87;;;15.60;;
5125;SDS011;63008;53.112;8.896;2023-12-04T03:29:38;24.87;;;16.90;;
5125;SDS011;63008;53.112;8.896;2023-12-04T03:31:39;26.43;;;15.13;;
5125;SDS011;63008;53.112;8.896;2023-12-04T03:33:40;25.40;;;14.03;;
5125;SDS011;63008;53.112;8.896;2023-12-04T03:35:41;24.97;;;14.20;;
5125;SDS011;63008;53.112;8.896;2023-12-04T03:37:42;22.13;;;12.73;;
5125;SDS011;63008;53.112;8.896;2023-12-04T03:39:43;26.57;;;15.77;;
5125;SDS011;63008;53.112;8.896;2023-12-04T03:41:44;25.93;;;16.50;;
5125;SDS011;63008;53.112;8.896;2023-12-04T03:43:45;23.90;;;13.73;;
5125;SDS011;63008;53.112;8.896;2023-12-04T03:45:46;24.67;;;15.23;;
5125;SDS011;63008;53.112;8.896;2023-12-04T03:47:47;30.60;;;13.90;;
5125;SDS011;63008;53.112;8.896;2023-12-04T03:49:48;24.70;;;13.57;;
5125;SDS011;63008;53.112;8.896;2023-12-04T03:51:49;24.27;;;16.00;;
5125;SDS011;63008;53.112;8.896;2023-12-04T03:53:50;26.10;;;15.70;;
5125;SDS011;63008;53.112;8.896;2023-12-04T03:55:51;23.07;;;13.10;;
5125;SDS011;63008;53.112;8.896;2023-12-04T03:57:52;24.13;;;14.43;;
5125;SDS011;63008;53.112;8.896;2023-12-04T03:59:54;23.23;;;13.30;;
5125;SDS011;63008;53.112;8.896;2023-12-04T04:01:55;25.40;;;14.97;;
5125;SDS011;63008;53.112;8.896;2023-12-04T04:03:56;24.40;;;14.03;;
5125;SDS011;63008;53.112;8.896;2023-12-04T04:05:57;23.07;;;12.77;;
5125;SDS011;63008;53.112;8.896;2023-12-04T04:07:58;24.20;;;12.83;;
5125;SDS011;63008;53.112;8.896;2023-12-04T04:09:59;23.37;;;13.33;;
5125;SDS011;63008;53.112;8.896;2023-12-04T04:12:01;22.27;;;14.10;;
5125;SDS011;63008;53.112;8.896;2023-12-04T04:14:02;29.40;;;14.40;;
5125;SDS011;63008;53.112;8.896;2023-12-04T04:16:03;22.70;;;12.70;;
5125;SDS011;63008;53.112;8.896;2023-12-04T04:18:04;23.40;;;13.77;;
5125;SDS011;63008;53.112;8.896;2023-12-04T04:20:05;22.83;;;13.67;;
5125;SDS011;63008;53.112;8.896;2023-12-04T04:22:07;22.33;;;12.33;;
5125;SDS011;63008;53.112;8.896;2023-12-04T04:24:08;22.77;;;13.43;;
5125;SDS011;63008;53.112;8.896;2023-12-04T04:26:09;21.53;;;12.33;;
5125;SDS011;63008;53.112;8.896;2023-12-04T04:28:10;25.40;;;12.20;;
5125;SDS011;63008;53.112;8.896;2023-12-04T04:30:11;23.33;;;13.00;;
5125;SDS011;63008;53.112;8.896;2023-12-04T04:32:14;23.67;;;12.63;;
5125;SDS011;63008;53.112;8.896;2023-12-04T04:34:15;25.63;;;14.43;;
5125;SDS011;63008;53.112;8.896;2023-12-04T04:36:16;24.10;;;13.57;;
5125;SDS011;63008;53.112;8.896;2023-12-04T04:38:17;25.70;;;14.97;;
5125;SDS011;63008;53.112;8.896;2023-12-04T04:40:18;26.27;;;14.50;;
5125;SDS011;63008;53.112;8.896;2023-12-04T04:42:19;24.97;;;12.93;;
5125;SDS011;63008;53.112;8.896;2023-12-04T04:44:20;23.67;;;14.40;;
5125;SDS011;63008;53.112;8.896;2023-12-04T04:46:21;22.70;;;12.80;;
5125;SDS011;63008;53.112;8.896;2023-12-04T04:48:22;25.30;;;13.80;;
5125;SDS011;63008;53.112;8.896;2023-12-04T04:50:23;24.60;;;13.50;;
5125;SDS011;63008;53.112;8.896;2023-12-04T04:52:24;21.70;;;12.20;;
5125;SDS011;63008;53.112;8.896;2023-12-04T04:54:24;24.40;;;13.00;;
5125;SDS011;63008;53.112;8.896;2023-12-04T04:56:25;23.57;;;12.70;;
5125;SDS011;63008;53.112;8.896;2023-12-04T04:58:26;23.57;;;12.70;;
5125;SDS011;63008;53.112;8.896;2023-12-04T05:00:27;24.10;;;13.40;;
5125;SDS011;63008;53.112;8.896;2023-12-04T05:02:28;27.17;;;14.13;;
5125;SDS011;63008;53.112;8.896;2023-12-04T05:04:29;22.47;;;13.77;;
5125;SDS011;63008;53.112;8.896;2023-12-04T05:06:30;23.63;;;14.53;;
5125;SDS011;63008;53.112;8.896;2023-12-04T05:08:31;27.53;;;13.60;;
5125;SDS011;63008;53.112;8.896;2023-12-04T05:10:32;27.17;;;13.60;;
5125;SDS011;63008;53.112;8.896;2023-12-04T05:12:33;27.27;;;13.57;;
5125;SDS011;63008;53.112;8.896;2023-12-04T05:14:34;23.60;;;12.70;;
5125;SDS011;63008;53.112;8.896;2023-12-04T05:16:35;28.33;;;14.23;;
5125;SDS011;63008;53.112;8.896;2023-12-04T05:18:38;22.23;;;12.10;;
5125;SDS011;63008;53.112;8.896;2023-12-04T05:20:39;23.30;;;13.03;;
5125;SDS011;63008;53.112;8.896;2023-12-04T05:22:40;26.90;;;13.17;;
5125;SDS011;63008;53.112;8.896;2023-12-04T05:24:41;24.43;;;12.27;;
5125;SDS011;63008;53.112;8.896;2023-12-04T05:26:42;25.23;;;13.57;;
5125;SDS011;63008;53.112;8.896;2023-12-04T05:28:44;22.77;;;12.47;;
5125;SDS011;63008;53.112;8.896;2023-12-04T05:30:45;25.83;;;13.63;;
5125;SDS011;63008;53.112;8.896;2023-12-04T05:32:46;26.00;;;14.70;;
5125;SDS011;63008;53.112;8.896;2023-12-04T05:34:46;25.47;;;13.20;;
5125;SDS011;63008;53.112;8.896;2023-12-04T05:36:47;22.43;;;12.83;;
5125;SDS011;63008;53.112;8.896;2023-12-04T05:38:48;24.47;;;13.03;;
5125;SDS011;63008;53.112;8.896;2023-12-04T05:40:49;25.47;;;13.70;;
5125;SDS011;63008;53.112;8.896;2023-12-04T05:42:50;21.77;;;11.50;;
5125;SDS011;63008;53.112;8.896;2023-12-04T05:44:51;21.30;;;13.77;;
5125;SDS011;63008;53.112;8.896;2023-12-04T05:46:55;22.93;;;13.47;;
5125;SDS011;63008;53.112;8.896;2023-12-04T05:48:56;24.40;;;12.43;;
5125;SDS011;63008;53.112;8.896;2023-12-04T05:50:57;24.23;;;12.00;;
5125;SDS011;63008;53.112;8.896;2023-12-04T05:52:58;26.87;;;12.97;;
5125;SDS011;63008;53.112;8.896;2023-12-04T05:54:59;22.50;;;12.40;;
5125;SDS011;63008;53.112;8.896;2023-12-04T05:57:00;24.10;;;12.37;;
5125;SDS011;63008;53.112;8.896;2023-12-04T05:59:01;24.10;;;12.53;;
5125;SDS011;63008;53.112;8.896;2023-12-04T06:01:03;20.00;;;11.47;;
5125;SDS011;63008;53.112;8.896;2023-12-04T06:03:04;21.10;;;12.70;;
5125;SDS011;63008;53.112;8.896;2023-12-04T06:05:06;20.33;;;11.93;;
5125;SDS011;63008;53.112;8.896;2023-12-04T06:07:08;24.00;;;12.43;;
5125;SDS011;63008;53.112;8.896;2023-12-04T06:09:10;22.13;;;12.47;;
5125;SDS011;63008;53.112;8.896;2023-12-04T06:11:11;20.53;;;11.90;;
5125;SDS011;63008;53.112;8.896;2023-12-04T06:13:12;22.37;;;12.47;;
5125;SDS011;63008;53.112;8.896;2023-12-04T06:15:13;22.87;;;12.97;;
5125;SDS011;63008;53.112;8.896;2023-12-04T06:17:14;24.77;;;13.77;;
5125;SDS011;63008;53.112;8.896;2023-12-04T06:19:15;23.53;;;12.43;;
5125;SDS011;63008;53.112;8.896;2023-12-04T06:21:16;28.67;;;12.50;;
5125;SDS011;63008;53.112;8.896;2023-12-04T06:23:17;25.70;;;13.60;;
5125;SDS011;63008;53.112;8.896;2023-12-04T06:25:19;25.80;;;14.53;;
5125;SDS011;63008;53.112;8.896;2023-12-04T06:27:21;22.90;;;12.73;;
5125;SDS011;63008;53.112;8.896;2023-12-04T06:29:23;19.93;;;11.97;;
5125;SDS011;63008;53.112;8.896;2023-12-04T06:31:25;26.60;;;13.37;;
5125;SDS011;63008;53.112;8.896;2023-12-04T06:33:26;23.47;;;13.17;;
5125;SDS011;63008;53.112;8.896;2023-12-04T06:35:27;19.33;;;11.97;;
5125;SDS011;63008;53.112;8.896;2023-12-04T06:37:29;21.67;;;13.53;;
5125;SDS011;63008;53.112;8.896;2023-12-04T06:39:31;25.60;;;13.70;;
5125;SDS011;63008;53.112;8.896;2023-12-04T06:41:33;22.77;;;13.70;;
5125;SDS011;63008;53.112;8.896;2023-12-04T06:43:34;24.33;;;13.13;;
5125;SDS011;63008;53.112;8.896;2023-12-04T06:45:35;23.77;;;12.83;;
5125;SDS011;63008;53.112;8.896;2023-12-04T06:47:37;23.83;;;13.50;;
5125;SDS011;63008;53.112;8.896;2023-12-04T06:49:41;25.90;;;13.93;;
5125;SDS011;63008;53.112;8.896;2023-12-04T06:51:42;24.20;;;13.43;;
5125;SDS011;63008;53.112;8.896;2023-12-04T06:53:43;22.30;;;12.70;;
5125;SDS011;63008;53.112;8.896;2023-12-04T06:55:44;20.73;;;12.13;;
5125;SDS011;63008;53.112;8.896;2023-12-04T06:57:45;26.83;;;13.57;;
5125;SDS011;63008;53.112;8.896;2023-12-04T06:59:46;22.23;;;12.93;;
5125;SDS011;63008;53.112;8.896;2023-12-04T07:01:47;25.03;;;13.63;;
5125;SDS011;63008;53.112;8.896;2023-12-04T07:03:48;24.13;;;14.10;;
5125;SDS011;63008;53.112;8.896;2023-12-04T07:05:49;25.47;;;13.40;;
5125;SDS011;63008;53.112;8.896;2023-12-04T07:07:50;26.20;;;13.50;;
5125;SDS011;63008;53.112;8.896;2023-12-04T07:09:51;22.63;;;12.20;;
5125;SDS011;63008;53.112;8.896;2023-12-04T07:11:52;26.60;;;13.50;;
5125;SDS011;63008;53.112;8.896;2023-12-04T07:13:53;20.00;;;11.53;;
5125;SDS011;63008;53.112;8.896;2023-12-04T07:15:55;24.53;;;13.73;;
5125;SDS011;63008;53.112;8.896;2023-12-04T07:17:56;22.60;;;12.20;;
5125;SDS011;63008;53.112;8.896;2023-12-04T07:19:57;22.17;;;13.67;;
5125;SDS011;63008;53.112;8.896;2023-12-04T07:21:58;28.60;;;13.20;;
5125;SDS011;63008;53.112;8.896;2023-12-04T07:23:59;21.43;;;12.93;;
5125;SDS011;63008;53.112;8.896;2023-12-04T07:26:00;26.07;;;14.57;;
5125;SDS011;63008;53.112;8.896;2023-12-04T07:28:01;22.80;;;12.77;;
5125;SDS011;63008;53.112;8.896;2023-12-04T07:30:02;25.83;;;14.07;;
5125;SDS011;63008;53.112;8.896;2023-12-04T07:32:03;21.63;;;12.93;;
5125;SDS011;63008;53.112;8.896;2023-12-04T07:34:05;23.93;;;12.40;;
5125;SDS011;63008;53.112;8.896;2023-12-04T07:36:06;23.90;;;13.53;;
5125;SDS011;63008;53.112;8.896;2023-12-04T07:38:07;21.13;;;12.43;;
5125;SDS011;63008;53.112;8.896;2023-12-04T07:40:08;22.50;;;13.50;;
5125;SDS011;63008;53.112;8.896;2023-12-04T07:42:11;23.37;;;13.50;;
5125;SDS011;63008;53.112;8.896;2023-12-04T07:44:12;24.73;;;13.83;;
5125;SDS011;63008;53.112;8.896;2023-12-04T07:46:13;25.90;;;13.10;;
5125;SDS011;63008;53.112;8.896;2023-12-04T07:48:14;22.40;;;13.33;;
5125;SDS011;63008;53.112;8.896;2023-12-04T07:50:15;26.07;;;13.83;;
5125;SDS011;63008;53.112;8.896;2023-12-04T07:52:17;20.00;;;12.63;;
5125;SDS011;63008;53.112;8.896;2023-12-04T07:54:19;22.90;;;13.27;;
5125;SDS011;63008;53.112;8.896;2023-12-04T07:56:20;20.37;;;12.33;;
5125;SDS011;63008;53.112;8.896;2023-12-04T07:58:21;19.03;;;11.70;;
5125;SDS011;63008;53.112;8.896;2023-12-04T08:00:22;17.70;;;10.73;;
5125;SDS011;63008;53.112;8.896;2023-12-04T08:02:26;21.13;;;12.33;;
5125;SDS011;63008;53.112;8.896;2023-12-04T08:04:28;23.20;;;12.63;;
5125;SDS011;63008;53.112;8.896;2023-12-04T08:06:29;25.10;;;12.87;;
5125;SDS011;63008;53.112;8.896;2023-12-04T08:08:30;22.13;;;13.50;;
5125;SDS011;63008;53.112;8.896;2023-12-04T08:10:32;20.17;;;12.17;;
5125;SDS011;63008;53.112;8.896;2023-12-04T08:12:33;19.00;;;11.37;;
5125;SDS011;63008;53.112;8.896;2023-12-04T08:14:34;19.83;;;10.60;;
5125;SDS011;63008;53.112;8.896;2023-12-04T08:16:35;19.53;;;11.53;;
5125;SDS011;63008;53.112;8.896;2023-12-04T08:18:36;21.97;;;13.10;;
5125;SDS011;63008;53.112;8.896;2023-12-04T08:20:37;23.20;;;11.67;;
5125;SDS011;63008;53.112;8.896;2023-12-04T08:22:41;21.27;;;11.53;;
5125;SDS011;63008;53.112;8.896;2023-12-04T08:24:42;20.67;;;11.17;;
5125;SDS011;63008;53.112;8.896;2023-12-04T08:26:46;16.47;;;10.73;;
5125;SDS011;63008;53.112;8.896;2023-12-04T08:28:47;23.20;;;12.27;;
5125;SDS011;63008;53.112;8.896;2023-12-04T08:30:48;19.30;;;12.00;;
5125;SDS011;63008;53.112;8.896;2023-12-04T08:32:49;21.43;;;11.77;;
5125;SDS011;63008;53.112;8.896;2023-12-04T08:34:50;17.17;;;11.37;;
5125;SDS011;63008;53.112;8.896;2023-12-04T08:36:51;16.53;;;10.33;;
5125;SDS011;63008;53.112;8.896;2023-12-04T08:38:52;21.93;;;11.37;;
5125;SDS011;63008;53.112;8.896;2023-12-04T08:40:53;19.37;;;11.73;;
5125;SDS011;63008;53.112;8.896;2023-12-04T08:42:54;18.53;;;10.97;;
5125;SDS011;63008;53.112;8.896;2023-12-04T08:44:55;21.60;;;11.07;;
5125;SDS011;63008;53.112;8.896;2023-12-04T08:46:56;18.47;;;11.40;;
5125;SDS011;63008;53.112;8.896;2023-12-04T08:48:58;16.37;;;10.43;;
5125;SDS011;63008;53.112;8.896;2023-12-04T08:50:59;20.43;;;11.43;;
5125;SDS011;63008;53.112;8.896;2023-12-04T08:53:00;23.70;;;12.60;;
5125;SDS011;63008;53.112;8.896;2023-12-04T08:55:02;17.73;;;10.63;;
5125;SDS011;63008;53.112;8.896;2023-12-04T08:57:03;15.30;;;10.10;;
5125;SDS011;63008;53.112;8.896;2023-12-04T08:59:04;15.20;;;10.20;;
5125;SDS011;63008;53.112;8.896;2023-12-04T09:01:05;16.70;;;10.50;;
5125;SDS011;63008;53.112;8.896;2023-12-04T09:03:06;16.50;;;10.33;;
5125;SDS011;63008;53.112;8.896;2023-12-04T09:05:07;16.43;;;10.00;;
5125;SDS011;63008;53.112;8.896;2023-12-04T09:07:08;16.40;;;10.87;;
5125;SDS011;63008;53.112;8.896;2023-12-04T09:09:09;15.00;;;9.43;;
5125;SDS011;63008;53.112;8.896;2023-12-04T09:11:11;15.50;;;9.40;;
5125;SDS011;63008;53.112;8.896;2023-12-04T09:13:13;17.80;;;10.27;;
5125;SDS011;63008;53.112;8.896;2023-12-04T09:15:14;17.80;;;11.00;;
5125;SDS011;63008;53.112;8.896;2023-12-04T09:17:15;18.20;;;10.50;;
5125;SDS011;63008;53.112;8.896;2023-12-04T09:19:17;14.93;;;10.00;;
5125;SDS011;63008;53.112;8.896;2023-12-04T09:21:18;15.27;;;10.20;;
5125;SDS011;63008;53.112;8.896;2023-12-04T09:23:19;16.03;;;9.20;;
5125;SDS011;63008;53.112;8.896;2023-12-04T09:25:20;15.43;;;9.40;;
5125;SDS011;63008;53.112;8.896;2023-12-04T09:27:21;16.63;;;9.70;;
5125;SDS011;63008;53.112;8.896;2023-12-04T09:29:23;14.90;;;9.57;;
5125;SDS011;63008;53.112;8.896;2023-12-04T09:31:24;15.63;;;9.80;;
5125;SDS011;63008;53.112;8.896;2023-12-04T09:33:25;16.20;;;10.83;;
5125;SDS011;63008;53.112;8.896;2023-12-04T09:35:27;16.20;;;9.83;;
5125;SDS011;63008;53.112;8.896;2023-12-04T09:37:28;15.60;;;10.20;;
5125;SDS011;63008;53.112;8.896;2023-12-04T09:39:29;15.50;;;10.10;;
5125;SDS011;63008;53.112;8.896;2023-12-04T09:41:30;14.83;;;9.83;;
5125;SDS011;63008;53.112;8.896;2023-12-04T09:43:32;16.10;;;10.00;;
5125;SDS011;63008;53.112;8.896;2023-12-04T09:45:33;15.50;;;9.70;;
5125;SDS011;63008;53.112;8.896;2023-12-04T09:47:35;14.97;;;9.83;;
5125;SDS011;63008;53.112;8.896;2023-12-04T09:49:37;14.10;;;9.60;;
5125;SDS011;63008;53.112;8.896;2023-12-04T09:51:38;16.47;;;10.33;;
5125;SDS011;63008;53.112;8.896;2023-12-04T09:53:39;15.80;;;9.40;;
5125;SDS011;63008;53.112;8.896;2023-12-04T09:55:41;16.63;;;9.93;;
5125;SDS011;63008;53.112;8.896;2023-12-04T09:57:43;17.07;;;9.47;;
5125;SDS011;63008;53.112;8.896;2023-12-04T09:59:46;14.97;;;9.30;;
5125;SDS011;63008;53.112;8.896;2023-12-04T10:01:48;17.60;;;10.43;;
5125;SDS011;63008;53.112;8.896;2023-12-04T10:03:50;15.93;;;10.87;;
5125;SDS011;63008;53.112;8.896;2023-12-04T10:05:51;12.13;;;8.70;;
5125;SDS011;63008;53.112;8.896;2023-12-04T10:07:54;16.50;;;9.87;;
5125;SDS011;63008;53.112;8.896;2023-12-04T10:09:55;15.70;;;9.67;;
5125;SDS011;63008;53.112;8.896;2023-12-04T10:11:56;14.83;;;9.30;;
5125;SDS011;63008;53.112;8.896;2023-12-04T10:13:58;13.77;;;8.97;;
5125;SDS011;63008;53.112;8.896;2023-12-04T10:15:59;17.77;;;9.17;;
5125;SDS011;63008;53.112;8.896;2023-12-04T10:18:00;15.87;;;9.20;;
5125;SDS011;63008;53.112;8.896;2023-12-04T10:20:05;15.83;;;9.20;;
5125;SDS011;63008;53.112;8.896;2023-12-04T10:22:13;15.60;;;10.37;;
5125;SDS011;63008;53.112;8.896;2023-12-04T10:24:26;12.90;;;8.70;;
5125;SDS011;63008;53.112;8.896;2023-12-04T10:26:35;18.40;;;10.00;;
5125;SDS011;63008;53.112;8.896;2023-12-04T10:28:36;14.20;;;9.87;;
5125;SDS011;63008;53.112;8.896;2023-12-04T10:30:37;15.50;;;10.03;;
5125;SDS011;63008;53.112;8.896;2023-12-04T10:32:39;13.67;;;8.63;;
5125;SDS011;63008;53.112;8.896;2023-12-04T10:34:41;11.80;;;8.70;;
5125;SDS011;63008;53.112;8.896;2023-12-04T10:36:44;11.83;;;8.53;;
5125;SDS011;63008;53.112;8.896;2023-12-04T10:38:46;12.00;;;8.37;;
5125;SDS011;63008;53.112;8.896;2023-12-04T10:40:47;14.50;;;9.60;;
5125;SDS011;63008;53.112;8.896;2023-12-04T10:42:48;12.97;;;8.93;;
5125;SDS011;63008;53.112;8.896;2023-12-04T10:44:49;13.97;;;8.90;;
5125;SDS011;63008;53.112;8.896;2023-12-04T10:46:50;13.43;;;9.33;;
5125;SDS011;63008;53.112;8.896;2023-12-04T10:48:51;13.47;;;8.80;;
5125;SDS011;63008;53.112;8.896;2023-12-04T10:50:52;17.07;;;9.33;;
5125;SDS011;63008;53.112;8.896;2023-12-04T10:52:53;15.03;;;8.93;;
5125;SDS011;63008;53.112;8.896;2023-12-04T10:54:56;15.50;;;9.47;;
5125;SDS011;63008;53.112;8.896;2023-12-04T10:57:00;11.07;;;8.03;;
5125;SDS011;63008;53.112;8.896;2023-12-04T10:59:04;14.13;;;9.07;;
5125;SDS011;63008;53.112;8.896;2023-12-04T11:01:11;12.13;;;8.73;;
5125;SDS011;63008;53.112;8.896;2023-12-04T11:03:18;12.77;;;8.57;;
5125;SDS011;63008;53.112;8.896;2023-12-04T11:05:23;14.60;;;9.23;;
5125;SDS011;63008;53.112;8.896;2023-12-04T11:07:26;13.97;;;9.47;;
5125;SDS011;63008;53.112;8.896;2023-12-04T11:09:28;12.40;;;8.73;;
5125;SDS011;63008;53.112;8.896;2023-12-04T11:11:31;14.97;;;9.10;;
5125;SDS011;63008;53.112;8.896;2023-12-04T11:13:42;15.43;;;9.70;;
5125;SDS011;63008;53.112;8.896;2023-12-04T11:15:47;13.53;;;8.77;;
5125;SDS011;63008;53.112;8.896;2023-12-04T11:17:51;13.83;;;9.17;;
5125;SDS011;63008;53.112;8.896;2023-12-04T11:19:59;11.50;;;8.63;;
5125;SDS011;63008;53.112;8.896;2023-12-04T11:22:08;12.43;;;9.23;;
5125;SDS011;63008;53.112;8.896;2023-12-04T11:24:10;10.67;;;7.67;;
5125;SDS011;63008;53.112;8.896;2023-12-04T11:26:11;12.93;;;8.43;;
5125;SDS011;63008;53.112;8.896;2023-12-04T11:28:12;13.23;;;9.30;;
5125;SDS011;63008;53.112;8.896;2023-12-04T11:30:15;12.23;;;9.13;;
5125;SDS011;63008;53.112;8.896;2023-12-04T11:32:16;12.17;;;9.57;;
5125;SDS011;63008;53.112;8.896;2023-12-04T11:34:18;13.80;;;9.37;;
5125;SDS011;63008;53.112;8.896;2023-12-04T11:36:19;13.23;;;8.30;;
5125;SDS011;63008;53.112;8.896;2023-12-04T11:38:20;10.97;;;8.33;;
5125;SDS011;63008;53.112;8.896;2023-12-04T11:40:21;13.60;;;8.80;;
5125;SDS011;63008;53.112;8.896;2023-12-04T11:42:23;13.20;;;9.20;;
5125;SDS011;63008;53.112;8.896;2023-12-04T11:44:25;12.27;;;8.50;;
5125;SDS011;63008;53.112;8.896;2023-12-04T11:46:26;13.07;;;8.70;;
5125;SDS011;63008;53.112;8.896;2023-12-04T11:48:29;13.50;;;8.23;;
5125;SDS011;63008;53.112;8.896;2023-12-04T11:50:30;15.47;;;9.73;;
5125;SDS011;63008;53.112;8.896;2023-12-04T11:52:34;13.43;;;9.20;;
5125;SDS011;63008;53.112;8.896;2023-12-04T11:59:08;12.97;;;9.13;;
5125;SDS011;63008;53.112;8.896;2023-12-04T12:01:10;15.00;;;9.90;;
5125;SDS011;63008;53.112;8.896;2023-12-04T12:03:14;14.90;;;9.40;;
5125;SDS011;63008;53.112;8.896;2023-12-04T12:05:15;13.30;;;8.77;;
5125;SDS011;63008;53.112;8.896;2023-12-04T12:07:17;13.60;;;8.47;;
5125;SDS011;63008;53.112;8.896;2023-12-04T12:09:18;15.83;;;9.00;;